createdAt,value
2024-04-04T07:01:33.797Z,1.37
2024-04-04T07:06:40.184Z,1.90
2024-04-04T07:11:45.091Z,1.27
2024-04-04T07:16:57.151Z,1.40
2024-04-04T07:22:02.946Z,1.60
2024-04-04T07:27:09.093Z,1.47
2024-04-04T07:32:20.398Z,1.40
2024-04-04T07:37:34.448Z,1.40
2024-04-04T07:42:41.765Z,1.60
2024-04-04T07:47:54.050Z,1.40
2024-04-04T07:52:58.228Z,1.70
2024-04-04T07:58:03.736Z,1.80
2024-04-04T08:03:13.271Z,1.70
2024-04-04T08:08:17.840Z,1.63
2024-04-04T08:13:21.855Z,1.43
2024-04-04T08:18:29.568Z,1.07
2024-04-04T08:23:34.450Z,1.63
2024-04-04T08:28:39.689Z,1.40
2024-04-04T08:33:45.656Z,0.90
2024-04-04T08:38:50.058Z,1.63
2024-04-04T08:43:55.911Z,1.60
2024-04-04T08:49:02.779Z,1.40
2024-04-04T08:54:06.851Z,2.03
2024-04-04T08:59:11.076Z,3.40
2024-04-04T09:04:26.448Z,1.87
2024-04-04T09:09:30.421Z,1.60
2024-04-04T09:14:35.514Z,1.60
2024-04-04T09:19:42.626Z,1.07
2024-04-04T09:24:57.139Z,1.00
2024-04-04T09:30:09.091Z,0.70
2024-04-04T09:35:15.566Z,1.13
2024-04-04T12:31:52.688Z,1.50
2024-04-04T12:37:25.393Z,2.07
2024-04-04T12:43:02.105Z,1.50
2024-04-04T12:48:19.102Z,1.47
2024-04-04T12:53:24.612Z,1.30
2024-04-04T12:58:36.788Z,1.53
2024-04-04T13:03:43.478Z,1.60
2024-04-04T13:08:47.661Z,1.33
2024-04-04T18:40:17.773Z,3.57
2024-04-04T18:45:22.240Z,3.87
2024-04-04T18:50:27.580Z,3.83
2024-04-04T18:55:34.585Z,3.53
2024-04-04T19:00:38.983Z,3.40
2024-04-04T19:05:47.832Z,3.63
2024-04-04T19:10:58.823Z,4.30
2024-04-04T19:16:04.051Z,3.30
2024-04-04T19:21:08.302Z,3.30
2024-04-04T19:26:16.437Z,3.57
2024-04-04T19:31:20.512Z,3.53
2024-04-04T19:36:25.726Z,3.90
2024-04-04T19:41:34.910Z,3.53
2024-04-04T19:46:41.286Z,3.90
2024-04-04T19:51:45.438Z,3.60
2024-04-04T19:56:51.515Z,3.43
2024-04-04T20:01:55.773Z,3.57
2024-04-04T20:06:59.997Z,3.47
2024-04-04T20:12:06.639Z,3.60
2024-04-04T20:17:10.787Z,4.23
2024-04-04T20:22:15.082Z,4.03
2024-04-04T20:27:21.330Z,3.30
2024-04-04T20:32:25.767Z,3.93
2024-04-04T20:37:30.091Z,4.13
2024-04-04T20:42:37.235Z,3.63
2024-04-04T20:47:41.399Z,3.37
2024-04-04T20:52:45.491Z,4.33
2024-04-04T20:57:51.488Z,3.87
2024-04-04T21:02:55.538Z,3.60
2024-04-04T21:07:59.567Z,3.23
2024-04-04T21:13:06.471Z,3.53
2024-04-04T21:18:11.415Z,3.00
2024-04-04T21:23:15.571Z,3.20
2024-04-04T21:28:22.445Z,3.07
2024-04-04T21:33:26.405Z,2.97
2024-04-04T21:38:30.352Z,3.07
2024-04-04T21:43:36.509Z,2.87
2024-04-04T21:48:40.598Z,2.53
2024-04-04T21:53:49.042Z,2.93
2024-04-04T21:58:55.044Z,2.83
2024-04-04T22:03:59.156Z,3.77
2024-04-04T22:09:04.148Z,3.30
2024-04-04T22:14:10.151Z,3.40
2024-04-04T22:19:14.172Z,2.80
2024-04-04T22:24:18.183Z,3.13
2024-04-04T22:29:24.262Z,2.90
2024-04-04T22:34:28.555Z,2.80
2024-04-04T22:39:32.824Z,2.93
2024-04-04T22:44:38.805Z,3.00
2024-04-04T22:49:42.904Z,3.20
2024-04-04T22:54:47.077Z,3.10
